首页
METAR-TAF:

METAR-TAF

机场 :

托皮卡, 堪薩斯州, 美国

纬度: 38-56-29N, 经度: 095-39-02W, 海拔: 329米

当前天气观测

该预报发布于51分钟前的10:53 UTC
风速10节,风向
温度 20°C
湿度 94%
气压 1018 hPa
能見度: 6.4公里
散云层高于4200英尺
阴天层高于6000英尺
雨, 轻雾

METAR: KFOE 191053Z 09010KT 4SM RA BR SCT042 OVC060 20/19 A3007 RMK AO2 LTG DSNT E AND SE SLP172 P0012 T02000194 $

时间: 06:44 (11:44 UTC)

预报

该预报发布于3小时和3分钟前的08:41 UTC
预报有效从19日的 09点(UTC)到 20日的 06点(UTC)
风速12节,风向南转西南
能見度: 9.7公里
多云层高于4000英尺, 积雨云.
阵雨, 轻雾, 附近有雷暴
短暂存在
从 19日的 09点(UTC)到 19日的 11点(UTC)
能見度: 3.2公里
雷暴, 小雨
从 19日的 1100点(UTC)
风速10节,风向
能見度: 10公里
多云层高于5000英尺
从 19日的 1300点(UTC)
风速6节,风向
能見度: 10公里
阴天层高于2300英尺
附近有阵雨
从 19日的 1700点(UTC)
风速5节,风向东转东北
能見度: 10公里
多云层高于6000英尺

TAF: KFOE 190841Z 1909/2006 20012KT 6SM SHRA BR VCTS BKN040CB TEMPO 1909/1911 2SM -TSRA FM191100 09010KT P6SM BKN050 FM191300 10006KT P6SM VCSH OVC023 FM191700 06005KT P6SM BKN060

超过4000个机场的气象观测和天气预报(METAR&TAF报告)。

可查询的气象台以黄色和红色小点在地图上表示。

将鼠标移到小点上方,可查看气象台名称。

然后点击查看天气观测和预报。

如需切换地图:点击带黑十字的绿色按钮放大地图;点击带横线的绿色按钮缩小地图;或者点击绿色箭头查看邻近地区的地图。


METAR-TAF: